Latest Coastal Weather Observations for Port Fairy

IDV60701

Issued at 12:52 am EDT Tuesday 19 October 2021 (issued every 10 minutes, with the page automatically refreshed every 10 minutes)

About coastal observations | Map of coastal stations | Coastal observations for VIC | Marine services | Other Formats
Station Details ID: 090175 Name: PORT FAIRY AWS Lat: -38.39 Lon: 142.23 Height: 10.0 m
Data from the previous 72 hours. | See also: Recent months at Port Fairy
Date/Time
EDT
Wind Sea
Height
m
Swell Vis
km
Cloud Weather Temp
°C
Press
MSL
hPa
Rain since
9am
mm
Dir  Spd
kts
Gust
kts
Height
m
Period
s
Dir
19/12:30am S 9 14 - - - - - - - 11.8 1020.2 0.0
19/12:00am SSW 9 13 - - - - - - - 11.8 1020.1 0.0
 
Date/Time
EDT
Wind Sea
Height
m
Swell Vis
km
Cloud Weather Temp
°C
Press
MSL
hPa
Rain since
9am
mm
Dir  Spd
kts
Gust
kts
Height
m
Period
s
Dir
18/11:30pm SSW 9 13 - - - - - - - 12.3 1020.0 0.0
18/11:00pm SSW 9 14 - - - - - - - 12.2 1019.9 0.0
18/10:30pm SW 10 14 - - - - - - - 12.2 1019.6 0.0
18/10:00pm SSW 11 14 - - - - - - - 12.0 1019.5 0.0
18/09:30pm SW 11 15 - - - - - - - 12.0 1019.1 0.0
18/09:00pm SW 12 16 - - - - - - - 12.1 1018.6 0.0
18/08:30pm SW 12 17 - - - - - - - 12.2 1018.2 0.0
18/08:00pm SW 11 14 - - - - - - - 12.2 1017.9 0.0
18/07:30pm SW 11 16 - - - - - - - 12.4 1017.7 0.0
18/07:00pm SW 13 17 - - - - - - - 13.1 1017.3 0.0
18/06:30pm SW 13 19 - - - - - - - 13.5 1017.1 0.0
18/06:00pm WSW 12 17 - - - - - - - 13.9 1016.8 0.0
18/05:30pm SW 12 16 - - - - - - - 14.8 1016.5 0.0
18/05:00pm SW 13 19 - - - - - - - 14.5 1016.2 0.0
18/04:30pm SW 10 17 - - - - - - - 13.3 1016.1 0.0
18/04:00pm WSW 14 19 - - - - - - - 15.3 1015.6 0.0
18/03:30pm WSW 14 19 - - - - - - - 15.6 1015.5 0.0
18/03:00pm WSW 13 18 - - - - - - - 15.4 1015.3 0.0
18/02:30pm WSW 13 18 - - - - - - - 15.3 1015.3 0.0
18/02:00pm SW 12 14 - - - - - - - 14.5 1015.1 0.0
18/01:30pm W 13 18 - - - - - - - 13.7 1015.0 0.0
18/01:00pm WSW 9 13 - - - - - - - 12.9 1015.1 0.0
18/12:30pm SW 13 18 - - - - - - - 13.8 1014.9 0.0
18/12:00pm W 11 15 - - - - - - - 14.0 1014.7 0.0
18/11:30am W 9 12 - - - - - - - 14.1 1014.6 0.0
18/11:00am W 10 15 - - - - - - - 13.0 1014.5 0.0
18/10:30am WNW 6 9 - - - - - - - 14.5 1014.2 0.0
18/10:00am WNW 6 9 - - - - - - - 12.5 1014.0 0.0
18/09:30am NW 5 8 - - - - - - - 12.5 1013.8 0.0
18/09:00am NW 5 9 - - - - - - - 11.5 1013.8 0.2
18/08:30am NW 4 6 - - - - - - - 10.5 1013.6 0.2
18/08:00am NNW 4 6 - - - - - - - 9.5 1013.3 0.2
18/07:30am NNW 3 5 - - - - - - - 9.1 1012.8 0.2
18/07:00am NNW 3 4 - - - - - - - 7.8 1012.6 0.2
18/06:30am NNW 3 4 - - - - - - - 8.6 1012.5 0.2
18/06:00am NNW 3 5 - - - - - - - 8.9 1012.3 0.2
18/05:30am NNW 3 5 - - - - - - - 8.9 1012.1 0.2
18/05:00am NNW 3 5 - - - - - - - 9.2 1012.1 0.2
18/04:30am N 3 4 - - - - - - - 9.0 1011.9 0.2
18/04:00am NNW 3 5 - - - - - - - 9.6 1012.2 0.2
18/03:30am NW 3 4 - - - - - - - 9.4 1012.5 0.2
18/03:00am NW 3 5 - - - - - - - 9.2 1012.3 0.2
18/02:30am N 3 4 - - - - - - - 9.0 1012.1 0.2
18/02:00am N 4 6 - - - - - - - 8.8 1012.1 0.2
18/01:30am N 3 4 - - - - - - - 8.8 1012.7 0.2
18/01:00am N 4 5 - - - - - - - 8.7 1012.7 0.2
18/12:30am N 3 4 - - - - - - - 8.5 1012.7 0.2
18/12:00am N 2 3 - - - - - - - 8.4 1013.2 0.2
 
Date/Time
EDT
Wind Sea
Height
m
Swell Vis
km
Cloud Weather Temp
°C
Press
MSL
hPa
Rain since
9am
mm
Dir  Spd
kts
Gust
kts
Height
m
Period
s
Dir
17/11:30pm N 1 2 - - - - - - - 9.1 1013.1 0.2
17/11:00pm N 2 2 - - - - - - - 9.4 1013.4 0.2
17/10:30pm N 1 2 - - - - - - - 9.7 1013.4 0.2
17/10:00pm WSW 1 1 - - - - - - - 10.3 1013.4 0.2
17/09:30pm SW 3 4 - - - - - - - 10.9 1013.3 0.2
17/09:00pm WSW 4 6 - - - - - - - 11.0 1013.2 0.2
17/08:30pm W 1 1 - - - - - - - 11.1 1013.3 0.2
17/08:00pm W 2 3 - - - - - - - 11.8 1013.2 0.2
17/07:30pm W 4 7 - - - - - - - 12.1 1013.0 0.2
17/07:00pm WSW 7 9 - - - - - - - 12.3 1013.1 0.2
17/06:30pm WSW 8 10 - - - - - - - 12.7 1013.0 0.2
17/06:00pm WSW 7 11 - - - - - - - 12.8 1012.8 0.2
17/05:30pm WSW 7 10 - - - - - - - 13.3 1012.7 0.2
17/05:00pm SW 6 9 - - - - - - - 13.3 1012.8 0.2
17/04:30pm SW 7 10 - - - - - - - 13.3 1012.9 0.2
17/04:00pm SW 7 10 - - - - - - - 13.6 1012.9 0.2
17/03:30pm SW 6 8 - - - - - - - 13.4 1013.0 0.2
17/03:00pm SW 4 6 - - - - - - - 14.4 1013.2 0.2
17/02:30pm WSW 5 6 - - - - - - - 14.2 1013.5 0.2
17/02:00pm WSW 4 6 - - - - - - - 13.6 1013.6 0.2
17/01:30pm SW 4 6 - - - - - - - 13.7 1013.7 0.2
17/01:00pm SW 4 6 - - - - - - - 14.1 1013.9 0.2
17/12:30pm NNW 3 5 - - - - - - - 14.5 1014.2 0.2
17/12:00pm NW 5 9 - - - - - - - 13.6 1014.6 0.2
17/11:30am NNW 5 8 - - - - - - - 14.0 1014.5 0.2
17/11:00am NW 7 10 - - - - - - - 13.6 1014.4 0.2
17/10:30am NW 6 9 - - - - - - - 12.9 1014.5 0.0
17/10:00am NNW 6 10 - - - - - - - 11.5 1014.6 0.0
17/09:30am NW 4 8 - - - - - - - 11.6 1014.6 0.0
17/09:00am NW 5 7 - - - - - - - 10.7 1014.7 1.6
17/08:30am NW 8 13 - - - - - - - 10.3 1014.6 1.6
17/08:00am NNW 5 8 - - - - - - - 9.8 1014.3 1.6
17/07:30am NNW 4 6 - - - - - - - 9.6 1014.1 1.6
17/07:00am NW 5 7 - - - - - - - 9.5 1013.9 1.6
17/06:30am NNW 4 6 - - - - - - - 9.5 1013.7 1.6
17/06:00am NW 4 6 - - - - - - - 9.5 1013.5 1.6
17/05:30am NW 6 9 - - - - - - - 9.5 1013.2 1.6
17/05:00am NW 5 8 - - - - - - - 9.5 1013.2 1.6
17/04:30am NW 5 8 - - - - - - - 9.6 1013.2 1.6
17/04:00am NNW 5 7 - - - - - - - 9.6 1013.2 1.6
17/03:30am NW 4 6 - - - - - - - 9.6 1013.4 1.6
17/03:00am NW 5 7 - - - - - - Recent precip. 9.7 1013.4 1.6
17/02:30am WNW 4 6 - - - - - - - 9.8 1013.8 1.6
17/02:00am NW 2 4 - - - - - - - 9.9 1013.9 1.4
17/01:30am NW 3 6 - - - - - - - 10.0 1014.0 1.4
17/01:00am NW 5 8 - - - - - - - 9.9 1014.3 1.4
17/12:30am NW 4 8 - - - - - - - 10.0 1014.5 1.4
17/12:00am NNW 5 7 - - - - - - - 10.2 1014.5 1.0
 
Date/Time
EDT
Wind Sea
Height
m
Swell Vis
km
Cloud Weather Temp
°C
Press
MSL
hPa
Rain since
9am
mm
Dir  Spd
kts
Gust
kts
Height
m
Period
s
Dir
16/11:30pm W 5 7 - - - - - - - 10.6 1014.6 1.0
16/11:00pm W 6 9 - - - - - - - 11.0 1014.7 1.0
16/10:30pm WSW 7 10 - - - - - - - 11.1 1014.8 1.0
16/10:00pm WSW 7 9 - - - - - - - 11.1 1014.6 1.0
16/09:30pm WSW 9 12 - - - - - - - 11.0 1014.5 1.0
16/09:00pm WSW 6 12 - - - - - - Recent precip. 10.8 1014.2 1.0
16/08:30pm WSW 10 14 - - - - - - - 11.0 1014.2 0.8
16/08:00pm WSW 7 11 - - - - - - - 10.9 1013.9 0.8
16/07:30pm SW 10 14 - - - - - - - 10.9 1013.8 0.8
16/07:00pm W 7 11 - - - - - - - 10.8 1013.6 0.6
16/06:30pm WSW 8 11 - - - - - - - 11.4 1013.6 0.4
16/06:00pm WSW 11 14 - - - - - - Rain 12.0 1013.3 0.4
16/05:30pm WSW 10 13 - - - - - - - 13.0 1013.1 0.2
16/05:00pm SW 11 18 - - - - - - - 13.7 1013.0 0.2
16/04:30pm SW 9 13 - - - - - - - 14.4 1012.8 0.2
16/04:00pm WSW 11 14 - - - - - - - 14.6 1012.8 0.2
16/03:30pm SW 10 14 - - - - - - - 15.2 1013.0 0.2
16/03:00pm SW 13 18 - - - - - - - 13.6 1013.2 0.2
16/02:30pm WSW 12 15 - - - - - - - 13.9 1013.2 0.2
16/02:00pm SW 9 15 - - - - - - - 12.7 1013.3 0.2
16/01:30pm WSW 12 18 - - - - - - - 13.3 1013.3 0.2
16/01:00pm WSW 13 17 - - - - - - - 12.9 1013.4 0.2
16/12:30pm SW 13 19 - - - - - - - 13.1 1013.4 0.2
16/12:00pm SW 14 19 - - - - - - - 13.3 1013.6 0.2
16/11:30am SSW 13 19 - - - - - - - 11.9 1013.6 0.2
16/11:00am SSW 13 19 - - - - - - - 11.5 1013.5 0.2
16/10:30am SW 16 21 - - - - - - - 12.3 1013.2 0.0
16/10:00am SW 13 17 - - - - - - - 12.5 1012.9 0.0
16/09:30am SW 17 23 - - - - - - - 12.2 1012.7 0.0
16/09:00am SW 16 23 - - - - - - - 12.4 1012.4 0.4
16/08:30am SW 16 21 - - - - - - - 12.0 1012.0 0.4
16/08:00am SW 17 23 - - - - - - - 11.8 1011.7 0.4
16/07:30am SW 15 22 - - - - - - - 12.1 1011.2 0.4
16/07:00am SW 17 24 - - - - - - - 12.1 1010.7 0.4
16/06:30am SW 16 23 - - - - - - - 12.2 1010.1 0.4
16/06:00am SW 18 25 - - - - - - - 11.9 1009.8 0.4
16/05:30am SW 20 28 - - - - - - - 12.2 1009.3 0.4
16/05:00am SW 18 26 - - - - - - - 12.2 1009.3 0.4
16/04:30am SW 19 26 - - - - - - - 12.3 1009.2 0.4
16/04:00am SW 19 26 - - - - - - - 12.2 1008.9 0.4
16/03:30am SW 20 27 - - - - - - - 12.2 1008.8 0.4
16/03:00am SW 22 28 - - - - - - - 12.2 1008.7 0.4
16/02:30am SW 21 30 - - - - - - - 12.0 1008.5 0.4
16/02:00am SW 21 29 - - - - - - - 12.4 1008.5 0.4
16/01:30am SW 22 31 - - - - - - - 12.6 1008.5 0.4
16/01:00am SW 23 30 - - - - - - - 12.5 1008.5 0.4

Other formats

Comma delimited format used in spreadsheet applications
http://www.bom.gov.au/fwo/IDV60701/IDV60701.94830.axf

JavaScript Object Notation format (JSON) in row-major order
http://www.bom.gov.au/fwo/IDV60701/IDV60701.94830.json

Data quality

Most of these data are generated automatically and are frequently updated. Quality checks on data are not normally performed. It is possible for incorrect values to appear. Refer to information at About Latest Weather Observations and please check the disclaimer before using these data.